Flinterbothnia — PBLG — position and weather

sailwx.info

Track history (hours):
 
Tides and Currents Weather Stations Pressure Air Temp Water Temp Dewpoint Dewpoint Depression Visibility Wind Speed Wind Dir Waves Ship Positions

Flinterbothnia

Last reported at 2014-Oct-24 10:34 UTC. Time now 2014-Oct-24 11:17 UTC.
Position N 51°11' E 003°48'.

Length 82 m; draft 3.6 m.

Type: Cargo ship. MMSI: 244741000.

Date/timePositionNaut miles runAvg speedWind from/ knotsBaromVisibWave heightAir tempDewpointWater temp
2014-Oct-24 10:34N 51°11' E 003°48'0 0.0
2014-Oct-24 09:34N 51°11' E 003°48'0 0.0
2014-Oct-24 08:33N 51°11' E 003°48'0 0.0
2014-Oct-24 07:34N 51°11' E 003°48'0 0.0
2014-Oct-24 06:33N 51°11' E 003°48'0 0.0
2014-Oct-24 05:34N 51°11' E 003°48'0 0.0
2014-Oct-24 04:33N 51°11' E 003°48'0 0.0
2014-Oct-24 03:33N 51°11' E 003°48'0 0.0
2014-Oct-24 02:33N 51°11' E 003°48'0 0.0
2014-Oct-24 01:33N 51°11' E 003°48'4 3.7
2014-Oct-24 00:33N 51°14' E 003°49'6 5.8
2014-Oct-23 23:33N 51°20' E 003°49'6 6.1
2014-Oct-23 22:34N 51°24' E 003°57'5 4.8
2014-Oct-23 21:34N 51°28' E 004°00'4 4.0
2014-Oct-23 20:34N 51°32' E 003°60'9 8.5
2014-Oct-23 19:33N 51°39' E 004°06'2 2.4
2014-Oct-23 18:33N 51°40' E 004°10'6 5.9
2014-Oct-23 17:33N 51°40' E 004°20'4 3.8
2014-Oct-23 16:33N 51°42' E 004°25'7 6.6
2014-Oct-23 15:33N 51°41' E 004°36'0 0.2
2014-Oct-23 14:31N 51°41' E 004°36'0 0.0
2014-Oct-23 13:31N 51°41' E 004°36'0 0.0
2014-Oct-23 12:31N 51°41' E 004°36'0 0.0
2014-Oct-23 11:28N 51°41' E 004°36'0 0.0
2014-Oct-23 10:25N 51°41' E 004°36'0 0.0
2014-Oct-23 09:10N 51°41' E 004°36'0 0.0
2014-Oct-23 08:21N 51°41' E 004°36'0 0.0
2014-Oct-23 07:33N 51°41' E 004°36'0 0.0
2014-Oct-23 06:34N 51°41' E 004°36'0 0.0
2014-Oct-23 05:33N 51°41' E 004°36'0 0.0
2014-Oct-23 04:33N 51°41' E 004°36'0 0.0
2014-Oct-23 03:33N 51°41' E 004°36'0 0.0
2014-Oct-23 02:33N 51°41' E 004°36'0 0.0
2014-Oct-23 01:33N 51°41' E 004°36'0 0.0
2014-Oct-23 00:33N 51°41' E 004°36'0 0.0
2014-Oct-22 23:34N 51°41' E 004°36'0 0.0
2014-Oct-22 22:32N 51°41' E 004°36'0 0.0
2014-Oct-22 21:34N 51°41' E 004°36'0 0.0
2014-Oct-22 20:34N 51°41' E 004°36'0 0.0
2014-Oct-22 19:33N 51°41' E 004°36'0 0.0
2014-Oct-22 18:33N 51°41' E 004°36'0 0.0
2014-Oct-22 17:30N 51°41' E 004°36'0 0.0
2014-Oct-22 16:33N 51°41' E 004°36'0 0.0
2014-Oct-22 15:33N 51°41' E 004°36'0 0.0
2014-Oct-22 14:33N 51°41' E 004°36'0 0.0
2014-Oct-22 13:30N 51°41' E 004°36'0 0.0
2014-Oct-22 12:33N 51°41' E 004°36'0 0.0
2014-Oct-22 11:33N 51°41' E 004°36'0 0.0
2014-Oct-22 10:32N 51°41' E 004°36'0 0.0
2014-Oct-22 09:33N 51°41' E 004°36'2 2.4
2014-Oct-22 08:33N 51°44' E 004°38'7 6.9
2014-Oct-22 07:33N 51°50' E 004°33'8 8.2
2014-Oct-22 06:33N 51°52' E 004°20'7 7.1
2014-Oct-22 05:33N 51°56' E 004°12'9 8.7
2014-Oct-22 04:33N 52°00' E 003°59'9 8.5
2014-Oct-22 03:33N 52°06' E 003°48'8 7.7
2014-Oct-22 02:32N 52°13' E 003°43'0 0.4
2014-Oct-22 01:32N 52°13' E 003°43'1 0.9
2014-Oct-22 00:31N 52°12' E 003°44'0 0.3
2014-Oct-21 23:32N 52°12' E 003°43'0 0.2
2014-Oct-21 22:27N 52°12' E 003°44'3 3.0
2014-Oct-21 21:32N 52°14' E 003°47'7 6.9
2014-Oct-21 20:33N 52°20' E 003°48'7 7.1
2014-Oct-21 19:31N 52°28' E 003°50'10 7.2
2014-Oct-21 18:08N 52°38' E 003°53'4 7.2
2014-Oct-21 17:33N 52°42' E 003°55'7 7.0
2014-Oct-21 16:33N 52°48' E 003°57'50 5.0
2014-Oct-21 06:33N 53°30' E 004°46'8 8.3
2014-Oct-21 05:33N 53°33' E 004°59'8 7.8
2014-Oct-21 04:33N 53°35' E 005°11'8 7.7
2014-Oct-21 03:33N 53°38' E 005°24'8 8.1
2014-Oct-21 02:33N 53°40' E 005°37'9 9.1
2014-Oct-21 01:33N 53°43' E 005°51'62 8.9
2014-Oct-20 18:33N 53°60' E 007°33'7 7.4
2014-Oct-20 17:33N 54°01' E 007°45'8 7.5
2014-Oct-20 16:33N 54°01' E 007°58'8 8.4
2014-Oct-20 15:33N 54°01' E 008°12'1010.5
2014-Oct-20 14:33N 53°59' E 008°29'1212.0
2014-Oct-20 13:33N 53°51' E 008°45'1111.4
2014-Oct-20 12:33N 53°53' E 009°05'3 3.1
2014-Oct-20 11:33N 53°54' E 009°09'5 5.0
2014-Oct-20 10:31N 53°58' E 009°15'16 7.8
2014-Oct-20 08:28N 54°11' E 009°30'7 8.0
2014-Oct-20 07:33N 54°17' E 009°38'8 7.2
2014-Oct-20 06:29N 54°22' E 009°48'7 8.0
2014-Oct-20 05:33N 54°21' E 010°01'5 4.7
2014-Oct-20 04:33N 54°22' E 010°09'7 7.1
2014-Oct-20 03:33N 54°28' E 010°15'9 9.1
2014-Oct-20 02:33N 54°33' E 010°28'34 8.4
2014-Oct-19 22:30N 54°31' E 011°27'8 9.0
2014-Oct-19 21:33N 54°28' E 011°40'9 8.7
2014-Oct-19 20:33N 54°27' E 011°55'9 8.5
2014-Oct-19 19:33N 54°28' E 012°10'55 9.0
2014-Oct-19 13:27N 54°57' E 013°32'8 9.4
2014-Oct-19 12:33N 54°60' E 013°46'9 9.3
2014-Oct-19 11:33N 55°02' E 014°01'9 9.2
2014-Oct-19 10:33N 55°09' E 014°11'10 9.4
2014-Oct-19 09:30N 55°17' E 014°23'9 9.3
2014-Oct-19 08:33N 55°24' E 014°33'9 9.3
2014-Oct-19 07:33N 55°29' E 014°46'9 9.0
2014-Oct-19 06:33N 55°34' E 014°59'49 8.2
2014-Oct-19 00:30N 55°60' E 016°14'  
Track history (hours):
 
Tides and Currents Weather Stations Pressure Air Temp Water Temp Dewpoint Dewpoint Depression Visibility Wind Speed Wind Dir Waves Ship Positions

Flinterbothnia

Last reported at 2014-Oct-24 10:34 UTC. Time now 2014-Oct-24 11:17 UTC.
Position N 51°11' E 003°48'.

Length 82 m; draft 3.6 m.

Type: Cargo ship. MMSI: 244741000.

Date/timePositionNaut miles runAvg speedWind from/ knotsBaromVisibWave heightAir tempDewpointWater temp
2014-Oct-24 10:34N 51°11' E 003°48'0 0.0
2014-Oct-24 09:34N 51°11' E 003°48'0 0.0
2014-Oct-24 08:33N 51°11' E 003°48'0 0.0
2014-Oct-24 07:34N 51°11' E 003°48'0 0.0
2014-Oct-24 06:33N 51°11' E 003°48'0 0.0
2014-Oct-24 05:34N 51°11' E 003°48'0 0.0
2014-Oct-24 04:33N 51°11' E 003°48'0 0.0
2014-Oct-24 03:33N 51°11' E 003°48'0 0.0
2014-Oct-24 02:33N 51°11' E 003°48'0 0.0
2014-Oct-24 01:33N 51°11' E 003°48'4 3.7
2014-Oct-24 00:33N 51°14' E 003°49'6 5.8
2014-Oct-23 23:33N 51°20' E 003°49'6 6.1
2014-Oct-23 22:34N 51°24' E 003°57'5 4.8
2014-Oct-23 21:34N 51°28' E 004°00'4 4.0
2014-Oct-23 20:34N 51°32' E 003°60'9 8.5
2014-Oct-23 19:33N 51°39' E 004°06'2 2.4
2014-Oct-23 18:33N 51°40' E 004°10'6 5.9
2014-Oct-23 17:33N 51°40' E 004°20'4 3.8
2014-Oct-23 16:33N 51°42' E 004°25'7 6.6
2014-Oct-23 15:33N 51°41' E 004°36'0 0.2
2014-Oct-23 14:31N 51°41' E 004°36'0 0.0
2014-Oct-23 13:31N 51°41' E 004°36'0 0.0
2014-Oct-23 12:31N 51°41' E 004°36'0 0.0
2014-Oct-23 11:28N 51°41' E 004°36'0 0.0
2014-Oct-23 10:25N 51°41' E 004°36'0 0.0
2014-Oct-23 09:10N 51°41' E 004°36'0 0.0
2014-Oct-23 08:21N 51°41' E 004°36'0 0.0
2014-Oct-23 07:33N 51°41' E 004°36'0 0.0
2014-Oct-23 06:34N 51°41' E 004°36'0 0.0
2014-Oct-23 05:33N 51°41' E 004°36'0 0.0
2014-Oct-23 04:33N 51°41' E 004°36'0 0.0
2014-Oct-23 03:33N 51°41' E 004°36'0 0.0
2014-Oct-23 02:33N 51°41' E 004°36'0 0.0
2014-Oct-23 01:33N 51°41' E 004°36'0 0.0
2014-Oct-23 00:33N 51°41' E 004°36'0 0.0
2014-Oct-22 23:34N 51°41' E 004°36'0 0.0
2014-Oct-22 22:32N 51°41' E 004°36'0 0.0
2014-Oct-22 21:34N 51°41' E 004°36'0 0.0
2014-Oct-22 20:34N 51°41' E 004°36'0 0.0
2014-Oct-22 19:33N 51°41' E 004°36'0 0.0
2014-Oct-22 18:33N 51°41' E 004°36'0 0.0
2014-Oct-22 17:30N 51°41' E 004°36'0 0.0
2014-Oct-22 16:33N 51°41' E 004°36'0 0.0
2014-Oct-22 15:33N 51°41' E 004°36'0 0.0
2014-Oct-22 14:33N 51°41' E 004°36'0 0.0
2014-Oct-22 13:30N 51°41' E 004°36'0 0.0
2014-Oct-22 12:33N 51°41' E 004°36'0 0.0
2014-Oct-22 11:33N 51°41' E 004°36'0 0.0
2014-Oct-22 10:32N 51°41' E 004°36'0 0.0
2014-Oct-22 09:33N 51°41' E 004°36'2 2.4
2014-Oct-22 08:33N 51°44' E 004°38'7 6.9
2014-Oct-22 07:33N 51°50' E 004°33'8 8.2
2014-Oct-22 06:33N 51°52' E 004°20'7 7.1
2014-Oct-22 05:33N 51°56' E 004°12'9 8.7
2014-Oct-22 04:33N 52°00' E 003°59'9 8.5
2014-Oct-22 03:33N 52°06' E 003°48'8 7.7
2014-Oct-22 02:32N 52°13' E 003°43'0 0.4
2014-Oct-22 01:32N 52°13' E 003°43'1 0.9
2014-Oct-22 00:31N 52°12' E 003°44'0 0.3
2014-Oct-21 23:32N 52°12' E 003°43'0 0.2
2014-Oct-21 22:27N 52°12' E 003°44'3 3.0
2014-Oct-21 21:32N 52°14' E 003°47'7 6.9
2014-Oct-21 20:33N 52°20' E 003°48'7 7.1
2014-Oct-21 19:31N 52°28' E 003°50'10 7.2
2014-Oct-21 18:08N 52°38' E 003°53'4 7.2
2014-Oct-21 17:33N 52°42' E 003°55'7 7.0
2014-Oct-21 16:33N 52°48' E 003°57'50 5.0
2014-Oct-21 06:33N 53°30' E 004°46'8 8.3
2014-Oct-21 05:33N 53°33' E 004°59'8 7.8
2014-Oct-21 04:33N 53°35' E 005°11'8 7.7
2014-Oct-21 03:33N 53°38' E 005°24'8 8.1
2014-Oct-21 02:33N 53°40' E 005°37'9 9.1
2014-Oct-21 01:33N 53°43' E 005°51'62 8.9
2014-Oct-20 18:33N 53°60' E 007°33'7 7.4
2014-Oct-20 17:33N 54°01' E 007°45'8 7.5
2014-Oct-20 16:33N 54°01' E 007°58'8 8.4
2014-Oct-20 15:33N 54°01' E 008°12'1010.5
2014-Oct-20 14:33N 53°59' E 008°29'1212.0
2014-Oct-20 13:33N 53°51' E 008°45'1111.4
2014-Oct-20 12:33N 53°53' E 009°05'3 3.1
2014-Oct-20 11:33N 53°54' E 009°09'5 5.0
2014-Oct-20 10:31N 53°58' E 009°15'16 7.8
2014-Oct-20 08:28N 54°11' E 009°30'7 8.0
2014-Oct-20 07:33N 54°17' E 009°38'8 7.2
2014-Oct-20 06:29N 54°22' E 009°48'7 8.0
2014-Oct-20 05:33N 54°21' E 010°01'5 4.7
2014-Oct-20 04:33N 54°22' E 010°09'7 7.1
2014-Oct-20 03:33N 54°28' E 010°15'9 9.1
2014-Oct-20 02:33N 54°33' E 010°28'34 8.4
2014-Oct-19 22:30N 54°31' E 011°27'8 9.0
2014-Oct-19 21:33N 54°28' E 011°40'9 8.7
2014-Oct-19 20:33N 54°27' E 011°55'9 8.5
2014-Oct-19 19:33N 54°28' E 012°10'55 9.0
2014-Oct-19 13:27N 54°57' E 013°32'8 9.4
2014-Oct-19 12:33N 54°60' E 013°46'9 9.3
2014-Oct-19 11:33N 55°02' E 014°01'9 9.2
2014-Oct-19 10:33N 55°09' E 014°11'10 9.4
2014-Oct-19 09:30N 55°17' E 014°23'9 9.3
2014-Oct-19 08:33N 55°24' E 014°33'9 9.3
2014-Oct-19 07:33N 55°29' E 014°46'9 9.0
2014-Oct-19 06:33N 55°34' E 014°59'49 8.2
2014-Oct-19 00:30N 55°60' E 016°14'  

Dump ship's entire track history